createdAt,value
2023-02-19T00:01:09.883Z,19.55
2023-02-19T00:03:37.324Z,19.02
2023-02-19T00:06:05.194Z,17.50
2023-02-19T00:08:32.979Z,16.35
2023-02-19T00:11:00.813Z,16.23
2023-02-19T00:13:27.670Z,16.08
2023-02-19T00:15:56.505Z,26.73
2023-02-19T00:18:23.873Z,17.40
2023-02-19T00:20:50.584Z,15.90
2023-02-19T00:23:17.364Z,16.15
2023-02-19T00:25:44.188Z,16.20
2023-02-19T00:28:10.916Z,16.67
2023-02-19T00:30:37.731Z,17.20
2023-02-19T00:33:05.046Z,16.98
2023-02-19T00:35:34.084Z,16.70
2023-02-19T00:38:00.855Z,17.45
2023-02-19T00:40:27.540Z,17.33
2023-02-19T00:42:54.269Z,16.95
2023-02-19T00:45:21.081Z,17.98
2023-02-19T00:47:47.935Z,16.88
2023-02-19T00:50:14.833Z,17.85
2023-02-19T00:52:41.652Z,16.88
2023-02-19T00:55:08.486Z,17.67
2023-02-19T00:57:35.455Z,17.42
2023-02-19T01:00:03.151Z,19.15
2023-02-19T01:02:30.841Z,18.08
2023-02-19T01:04:57.643Z,17.60
2023-02-19T01:07:24.940Z,19.02
2023-02-19T01:09:51.783Z,18.40
2023-02-19T01:12:18.528Z,19.85
2023-02-19T01:14:46.016Z,20.67
2023-02-19T01:17:13.398Z,23.70
2023-02-19T01:19:40.025Z,23.15
2023-02-19T01:22:06.794Z,22.52
2023-02-19T01:24:33.480Z,20.08
2023-02-19T01:27:00.293Z,20.65
2023-02-19T01:29:27.204Z,20.80
2023-02-19T01:31:54.400Z,19.25
2023-02-19T01:34:21.226Z,22.58
2023-02-19T01:36:47.952Z,24.67
2023-02-19T01:39:14.777Z,27.77
2023-02-19T01:41:42.154Z,28.40
2023-02-19T01:44:12.223Z,26.35
2023-02-19T01:46:40.011Z,26.25
2023-02-19T01:49:09.745Z,27.55
2023-02-19T01:51:38.252Z,33.13
2023-02-19T01:54:06.865Z,33.78
2023-02-19T01:56:34.705Z,36.92
2023-02-19T01:59:02.131Z,34.63
2023-02-19T02:01:29.272Z,36.08
2023-02-19T02:03:56.581Z,34.50
2023-02-19T02:06:29.707Z,33.63
2023-02-19T02:09:16.348Z,32.88
2023-02-19T02:11:46.171Z,32.50
2023-02-19T02:14:13.171Z,34.53
2023-02-19T02:17:00.725Z,34.80
2023-02-19T02:19:39.591Z,34.17
2023-02-19T02:22:15.143Z,33.30
2023-02-19T02:24:50.219Z,32.90
2023-02-19T02:27:35.816Z,31.25
2023-02-19T02:30:21.511Z,28.75
2023-02-19T02:32:53.425Z,30.92
2023-02-19T02:35:27.502Z,29.70
2023-02-19T02:37:56.939Z,28.67
2023-02-19T02:40:24.104Z,28.77
2023-02-19T02:42:50.779Z,29.15
2023-02-19T02:45:37.706Z,27.73
2023-02-19T02:48:30.010Z,26.98
2023-02-19T02:51:00.122Z,26.08
2023-02-19T02:53:48.804Z,23.67
2023-02-19T02:56:17.191Z,21.70
2023-02-19T02:58:44.695Z,22.42
2023-02-19T03:01:50.899Z,22.42
2023-02-19T03:04:27.706Z,22.85
2023-02-19T03:06:55.444Z,22.85
2023-02-19T03:09:40.782Z,22.33
2023-02-19T03:12:33.098Z,22.80
2023-02-19T03:15:21.653Z,21.25
2023-02-19T03:18:10.173Z,22.30
2023-02-19T03:20:39.107Z,21.98
2023-02-19T03:23:07.210Z,21.60
2023-02-19T03:25:53.925Z,21.90
2023-02-19T03:28:50.414Z,20.58
2023-02-19T03:31:19.590Z,20.98
2023-02-19T03:33:48.595Z,23.58
2023-02-19T03:36:16.189Z,22.30
2023-02-19T03:38:47.934Z,24.35
2023-02-19T03:41:17.971Z,23.77
2023-02-19T03:43:45.386Z,22.67
2023-02-19T03:46:15.576Z,24.38
2023-02-19T03:48:57.325Z,20.73
2023-02-19T03:51:27.350Z,20.10
2023-02-19T03:53:54.642Z,17.27
2023-02-19T03:56:40.080Z,17.63
2023-02-19T03:59:16.916Z,16.33
2023-02-19T04:01:55.191Z,13.93
2023-02-19T04:04:22.173Z,15.15
2023-02-19T04:06:52.769Z,14.77
2023-02-19T04:09:20.937Z,15.57
2023-02-19T04:11:56.119Z,16.13
2023-02-19T04:14:32.800Z,17.30
2023-02-19T04:17:01.697Z,16.90
2023-02-19T04:19:30.808Z,17.73
2023-02-19T04:21:58.997Z,15.65
2023-02-19T04:24:32.043Z,15.95
2023-02-19T04:26:58.920Z,14.60
2023-02-19T04:29:25.695Z,15.32
2023-02-19T04:31:52.549Z,15.65
2023-02-19T04:34:19.404Z,13.68
2023-02-19T04:36:46.282Z,14.40
2023-02-19T04:39:13.028Z,12.18
2023-02-19T04:41:40.099Z,12.02
2023-02-19T04:44:07.557Z,11.57
2023-02-19T04:46:34.268Z,12.00
2023-02-19T04:49:01.098Z,10.88
2023-02-19T04:51:27.911Z,12.02
2023-02-19T04:53:56.409Z,10.10
2023-02-19T04:56:25.071Z,9.05
2023-02-19T04:58:56.677Z,9.13
2023-02-19T05:01:25.062Z,11.20
2023-02-19T05:03:53.545Z,10.00
2023-02-19T05:06:20.296Z,9.95
2023-02-19T05:08:49.238Z,11.00
2023-02-19T05:11:18.313Z,11.15
2023-02-19T05:13:45.423Z,11.07
2023-02-19T05:16:17.136Z,11.98
2023-02-19T05:18:45.181Z,13.10
2023-02-19T05:21:12.990Z,15.35
2023-02-19T05:23:40.100Z,15.70
2023-02-19T05:26:07.622Z,14.20
2023-02-19T05:28:34.674Z,13.38
2023-02-19T05:31:04.884Z,13.52
2023-02-19T05:33:32.639Z,16.08
2023-02-19T05:36:00.565Z,13.00
2023-02-19T05:38:27.870Z,13.40
2023-02-19T05:40:55.982Z,16.85
2023-02-19T05:43:22.809Z,14.10
2023-02-19T05:45:50.319Z,13.57
2023-02-19T05:48:17.033Z,14.32
2023-02-19T05:50:43.760Z,13.23
2023-02-19T05:53:13.197Z,12.85
2023-02-19T05:55:39.957Z,17.27
2023-02-19T05:58:08.032Z,15.60
2023-02-19T06:00:36.141Z,13.98
2023-02-19T06:03:03.559Z,14.02
2023-02-19T06:05:32.604Z,15.27
2023-02-19T06:07:59.398Z,15.27
2023-02-19T06:10:28.350Z,15.23
2023-02-19T06:12:55.583Z,15.23
2023-02-19T06:15:22.637Z,15.82
2023-02-19T06:17:49.486Z,17.00
2023-02-19T06:20:18.726Z,19.33
2023-02-19T06:22:45.730Z,18.75
2023-02-19T06:25:12.856Z,17.88
2023-02-19T06:27:39.997Z,18.83
2023-02-19T06:30:07.259Z,20.88
2023-02-19T06:32:38.579Z,19.83
2023-02-19T06:35:09.213Z,20.23
2023-02-19T06:37:35.911Z,19.63
2023-02-19T06:40:02.702Z,19.90
2023-02-19T06:42:31.844Z,19.80
2023-02-19T06:44:59.294Z,18.77
2023-02-19T06:47:26.098Z,19.73
2023-02-19T06:49:53.059Z,19.90
2023-02-19T06:52:20.854Z,20.17
2023-02-19T06:54:47.685Z,19.95
2023-02-19T06:57:14.440Z,21.05
2023-02-19T06:59:41.166Z,19.63
2023-02-19T07:02:10.783Z,19.77
2023-02-19T07:04:37.670Z,19.30
2023-02-19T07:07:06.056Z,19.35
2023-02-19T07:09:33.021Z,19.13
2023-02-19T07:12:01.429Z,18.63
2023-02-19T07:14:29.848Z,20.02
2023-02-19T07:16:57.027Z,21.80
2023-02-19T07:19:23.828Z,22.52
2023-02-19T07:21:50.551Z,21.23
2023-02-19T07:24:17.506Z,20.90
2023-02-19T07:26:44.177Z,20.73
2023-02-19T07:29:10.920Z,19.30
2023-02-19T07:31:37.811Z,19.55
2023-02-19T07:34:04.622Z,18.63
2023-02-19T07:36:31.728Z,19.40
2023-02-19T07:38:59.249Z,19.88
2023-02-19T07:41:27.127Z,19.08
2023-02-19T07:43:57.090Z,17.48
2023-02-19T07:46:24.295Z,18.58
2023-02-19T07:48:51.295Z,18.63
2023-02-19T07:51:19.626Z,19.90
2023-02-19T07:54:16.119Z,17.75
2023-02-19T07:56:43.381Z,18.88
2023-02-19T07:59:16.257Z,17.83
2023-02-19T08:02:18.532Z,18.60
2023-02-19T08:04:52.148Z,19.75
2023-02-19T08:07:19.133Z,19.60
2023-02-19T08:10:09.650Z,18.40
2023-02-19T08:13:00.225Z,18.98
2023-02-19T08:15:36.786Z,17.38
2023-02-19T08:18:03.807Z,16.13
2023-02-19T08:20:30.603Z,16.67
2023-02-19T08:22:59.724Z,16.52
2023-02-19T08:25:26.629Z,15.68
2023-02-19T08:27:56.677Z,15.85
2023-02-19T08:30:23.964Z,14.55
2023-02-19T08:32:51.344Z,15.85
2023-02-19T08:35:18.176Z,16.20
2023-02-19T08:37:46.197Z,15.88
2023-02-19T08:40:14.713Z,16.02
2023-02-19T08:42:41.610Z,15.55
2023-02-19T08:45:08.796Z,16.55
2023-02-19T08:47:36.116Z,17.67
2023-02-19T08:50:05.064Z,19.27
2023-02-19T08:52:32.053Z,16.92
2023-02-19T08:55:02.326Z,17.90
2023-02-19T08:57:40.057Z,17.77
2023-02-19T09:00:15.408Z,19.13
2023-02-19T09:02:42.436Z,18.48
2023-02-19T09:05:11.052Z,17.63
2023-02-19T09:07:38.079Z,17.50
2023-02-19T09:10:08.574Z,16.88
2023-02-19T09:12:35.675Z,17.58
2023-02-19T09:15:02.845Z,16.38
2023-02-19T09:17:29.830Z,18.80
2023-02-19T09:19:56.919Z,19.98
2023-02-19T09:22:24.284Z,19.95
2023-02-19T09:24:51.351Z,18.58
2023-02-19T09:27:19.099Z,16.52
2023-02-19T09:29:46.503Z,17.85
2023-02-19T09:32:13.796Z,17.15
2023-02-19T09:34:40.971Z,17.42
2023-02-19T09:37:07.953Z,17.75
2023-02-19T09:39:35.221Z,17.30
2023-02-19T09:42:15.625Z,16.40
2023-02-19T09:44:44.213Z,15.52
2023-02-19T09:47:19.562Z,16.90
2023-02-19T09:49:52.572Z,16.75
2023-02-19T09:52:31.819Z,16.15
2023-02-19T09:55:01.552Z,17.17
2023-02-19T09:57:29.714Z,17.25
2023-02-19T10:00:10.382Z,18.50
2023-02-19T10:02:38.925Z,17.02
2023-02-19T10:05:12.716Z,18.38
2023-02-19T10:10:13.179Z,19.08
2023-02-19T10:15:12.554Z,19.63
2023-02-19T10:17:40.277Z,19.15
2023-02-19T10:20:07.657Z,18.55
2023-02-19T10:22:36.577Z,18.20
2023-02-19T10:25:03.820Z,19.30
2023-02-19T10:27:31.385Z,19.98
2023-02-19T10:29:59.880Z,21.20
2023-02-19T10:32:29.759Z,22.27
2023-02-19T10:38:07.063Z,22.08
2023-02-19T10:40:36.493Z,21.42
2023-02-19T10:43:05.123Z,21.48
2023-02-19T10:53:25.588Z,22.80
2023-02-19T10:56:13.676Z,21.52
2023-02-19T10:58:42.490Z,22.60
2023-02-19T11:01:30.796Z,22.42
2023-02-19T11:04:17.893Z,22.85
2023-02-19T11:06:48.152Z,23.55
2023-02-19T11:09:27.418Z,24.15
2023-02-19T11:11:59.804Z,24.65
2023-02-19T11:14:29.241Z,24.55
2023-02-19T11:16:57.481Z,23.90
2023-02-19T11:19:36.982Z,22.92
2023-02-19T11:22:24.217Z,23.75
2023-02-19T11:24:57.845Z,23.88
2023-02-19T11:27:26.728Z,23.08
2023-02-19T11:30:23.665Z,23.17
2023-02-19T11:32:50.960Z,23.63
2023-02-19T11:35:26.594Z,24.48
2023-02-19T11:38:08.767Z,24.48
2023-02-19T11:40:42.851Z,24.65
2023-02-19T11:43:31.921Z,24.60
2023-02-19T11:46:04.672Z,23.83
2023-02-19T11:48:45.302Z,23.60
2023-02-19T11:51:14.975Z,24.40
2023-02-19T11:53:49.684Z,24.35
2023-02-19T11:56:17.588Z,23.85
2023-02-19T11:58:47.949Z,24.00
2023-02-19T12:01:18.624Z,22.70
2023-02-19T12:03:48.979Z,24.02
2023-02-19T12:06:17.259Z,24.63
2023-02-19T12:09:02.796Z,22.95
2023-02-19T12:11:42.551Z,24.30
2023-02-19T12:14:22.105Z,23.08
2023-02-19T12:17:42.222Z,22.77
2023-02-19T12:20:23.061Z,22.40
2023-02-19T12:23:11.635Z,22.63
2023-02-19T12:25:57.416Z,22.67
2023-02-19T12:28:27.270Z,22.98
2023-02-19T12:31:04.561Z,23.38
2023-02-19T12:33:49.895Z,21.08
2023-02-19T12:37:07.914Z,20.65
2023-02-19T12:39:35.085Z,21.55
2023-02-19T12:43:01.115Z,21.10
2023-02-19T12:45:59.323Z,21.58
2023-02-19T12:49:42.326Z,23.05
2023-02-19T12:52:18.442Z,19.88
2023-02-19T12:58:32.957Z,17.63
2023-02-19T13:01:00.626Z,16.92
2023-02-19T13:03:30.865Z,16.70
2023-02-19T13:06:01.903Z,18.30
2023-02-19T13:09:03.579Z,15.43
2023-02-19T13:11:36.624Z,15.80
2023-02-19T13:14:07.008Z,16.52
2023-02-19T13:16:37.379Z,16.30
2023-02-19T13:19:04.657Z,16.77
2023-02-19T13:21:51.715Z,16.85
2023-02-19T13:24:24.747Z,15.70
2023-02-19T13:26:54.485Z,15.80
2023-02-19T13:29:24.578Z,15.82
2023-02-19T13:31:54.827Z,17.52
2023-02-19T13:34:40.715Z,15.38
2023-02-19T13:37:08.071Z,16.58
2023-02-19T13:39:35.292Z,16.20
2023-02-19T13:42:02.402Z,16.58
2023-02-19T13:44:33.271Z,16.27
2023-02-19T13:47:00.859Z,16.48
2023-02-19T13:49:27.865Z,18.20
2023-02-19T13:51:56.305Z,18.85
2023-02-19T13:54:28.158Z,17.88
2023-02-19T13:57:13.722Z,17.30
2023-02-19T13:59:41.060Z,18.40
2023-02-19T14:02:12.921Z,18.25
2023-02-19T14:05:18.254Z,20.25
2023-02-19T14:07:53.214Z,17.40
2023-02-19T14:10:47.043Z,16.33
2023-02-19T14:14:14.883Z,17.00
2023-02-19T14:16:42.344Z,18.95
2023-02-19T14:19:29.676Z,21.15
2023-02-19T14:21:56.898Z,20.30
2023-02-19T14:24:25.730Z,22.73
2023-02-19T14:26:52.750Z,21.25
2023-02-19T14:29:20.013Z,21.58
2023-02-19T14:31:47.145Z,22.00
2023-02-19T14:34:19.646Z,24.10
2023-02-19T14:36:54.046Z,26.88
2023-02-19T14:39:35.263Z,23.05
2023-02-19T14:42:04.834Z,23.40
2023-02-19T14:44:37.344Z,27.65
2023-02-19T14:47:09.555Z,29.70
2023-02-19T14:49:43.073Z,25.20
2023-02-19T14:52:15.910Z,23.67
2023-02-19T14:54:46.119Z,23.42
2023-02-19T14:57:23.677Z,24.13
2023-02-19T14:59:54.361Z,23.27
2023-02-19T15:02:22.031Z,22.92
2023-02-19T15:04:49.254Z,23.20
2023-02-19T15:07:19.401Z,25.08
2023-02-19T15:09:57.115Z,23.92
2023-02-19T15:12:25.957Z,23.25
2023-02-19T15:14:57.437Z,22.42
2023-02-19T15:17:28.701Z,22.35
2023-02-19T15:19:57.336Z,22.83
2023-02-19T15:22:25.072Z,23.40
2023-02-19T15:24:52.456Z,24.08
2023-02-19T15:27:23.748Z,23.30
2023-02-19T15:29:53.569Z,24.65
2023-02-19T15:32:22.808Z,23.92
2023-02-19T15:34:55.716Z,24.27
2023-02-19T15:37:23.406Z,22.90
2023-02-19T15:39:51.429Z,22.75
2023-02-19T15:42:20.186Z,23.50
2023-02-19T15:44:53.503Z,23.17
2023-02-19T15:47:29.686Z,23.15
2023-02-19T15:50:23.354Z,22.40
2023-02-19T15:52:59.316Z,22.58
2023-02-19T15:55:33.936Z,22.95
2023-02-19T15:58:08.677Z,24.30
2023-02-19T16:00:39.341Z,23.65
2023-02-19T16:03:06.756Z,23.08
2023-02-19T16:05:40.055Z,34.70
2023-02-19T16:08:06.985Z,25.30
2023-02-19T16:10:34.634Z,23.45
2023-02-19T16:13:02.489Z,23.92
2023-02-19T16:16:06.084Z,24.58
2023-02-19T16:18:33.485Z,24.73
2023-02-19T16:21:01.187Z,24.55
2023-02-19T16:23:28.333Z,26.23
2023-02-19T16:26:02.375Z,28.48
2023-02-19T16:28:34.046Z,26.92
2023-02-19T16:31:02.171Z,25.88
2023-02-19T16:33:36.202Z,25.02
2023-02-19T16:36:21.656Z,26.48
2023-02-19T16:39:06.962Z,22.85
2023-02-19T16:41:40.131Z,23.70
2023-02-19T16:44:25.379Z,25.40
2023-02-19T16:46:53.686Z,29.27
2023-02-19T16:49:21.646Z,28.17
2023-02-19T16:51:48.736Z,27.50
2023-02-19T16:54:15.700Z,27.90
2023-02-19T16:56:42.614Z,25.58
2023-02-19T16:59:09.593Z,25.70
2023-02-19T17:01:37.343Z,27.05
2023-02-19T17:04:06.606Z,30.05
2023-02-19T17:06:34.863Z,32.28
2023-02-19T17:09:02.211Z,30.83
2023-02-19T17:11:29.407Z,38.55
2023-02-19T17:13:56.510Z,31.13
2023-02-19T17:16:26.339Z,30.45
2023-02-19T17:18:54.315Z,29.55
2023-02-19T17:21:23.104Z,31.77
2023-02-19T17:23:50.217Z,31.17
2023-02-19T17:26:21.718Z,31.52
2023-02-19T17:28:48.719Z,35.80
2023-02-19T17:31:16.179Z,48.28
2023-02-19T17:33:43.892Z,38.90
2023-02-19T17:36:22.150Z,34.15
2023-02-19T17:38:49.191Z,36.40
2023-02-19T17:41:16.056Z,39.75
2023-02-19T17:43:43.034Z,37.15
2023-02-19T17:46:16.952Z,38.47
2023-02-19T17:48:44.339Z,35.78
2023-02-19T17:51:11.665Z,33.08
2023-02-19T17:53:38.929Z,35.47
2023-02-19T17:56:06.175Z,35.45
2023-02-19T17:58:33.191Z,42.05
2023-02-19T18:01:00.044Z,36.38
2023-02-19T18:03:27.016Z,40.40
2023-02-19T18:05:54.220Z,40.47
2023-02-19T18:08:21.311Z,36.88
2023-02-19T18:10:49.800Z,39.55
2023-02-19T18:13:16.624Z,38.42
2023-02-19T18:15:43.578Z,35.30
2023-02-19T18:18:10.407Z,34.47
2023-02-19T18:20:37.528Z,35.03
2023-02-19T18:23:04.571Z,33.53
2023-02-19T18:25:31.481Z,35.47
2023-02-19T18:27:58.965Z,35.78
2023-02-19T18:30:26.311Z,73.25
2023-02-19T18:32:53.266Z,34.47
2023-02-19T18:35:20.475Z,34.92
2023-02-19T18:37:54.158Z,38.22
2023-02-19T18:40:22.105Z,35.17
2023-02-19T18:42:49.556Z,38.65
2023-02-19T18:45:16.892Z,37.42
2023-02-19T18:47:46.379Z,35.97
2023-02-19T18:50:13.792Z,37.65
2023-02-19T18:52:40.648Z,36.10
2023-02-19T18:55:07.832Z,39.08
2023-02-19T18:57:34.697Z,35.75
2023-02-19T19:00:01.599Z,34.75
2023-02-19T19:02:36.424Z,36.88
2023-02-19T19:05:10.092Z,34.45
2023-02-19T19:07:36.950Z,35.25
2023-02-19T19:10:04.210Z,34.70
2023-02-19T19:12:31.391Z,37.97
2023-02-19T19:14:58.420Z,37.55
2023-02-19T19:17:25.521Z,35.15
2023-02-19T19:19:52.376Z,36.88
2023-02-19T19:22:22.787Z,36.15
2023-02-19T19:24:49.634Z,36.45
2023-02-19T19:27:18.293Z,36.15
2023-02-19T19:29:47.338Z,35.00
2023-02-19T19:32:14.555Z,36.08
2023-02-19T19:34:42.880Z,37.63
2023-02-19T19:37:09.948Z,37.03
2023-02-19T19:39:37.175Z,37.10
2023-02-19T19:42:04.549Z,33.45
2023-02-19T19:44:31.480Z,35.17
2023-02-19T19:46:58.530Z,35.88
2023-02-19T19:49:25.564Z,35.10
2023-02-19T19:51:52.561Z,36.70
2023-02-19T19:54:19.864Z,35.42
2023-02-19T19:56:47.209Z,44.70
2023-02-19T19:59:14.869Z,40.03
2023-02-19T20:02:08.068Z,41.35
2023-02-19T20:04:35.057Z,42.45
2023-02-19T20:07:02.384Z,44.80
2023-02-19T20:09:29.786Z,48.83
2023-02-19T20:11:56.889Z,50.70
2023-02-19T20:14:25.296Z,56.80
2023-02-19T20:16:55.556Z,61.63
2023-02-19T20:19:24.079Z,64.60
2023-02-19T20:21:52.770Z,64.80
2023-02-19T20:24:24.097Z,63.67
2023-02-19T20:26:51.729Z,68.35
2023-02-19T20:29:18.573Z,69.43
2023-02-19T20:31:49.565Z,70.35
2023-02-19T20:34:16.952Z,75.03
2023-02-19T20:36:44.180Z,75.13
2023-02-19T20:39:12.521Z,77.05
2023-02-19T20:41:39.493Z,83.82
2023-02-19T20:44:07.364Z,85.53
2023-02-19T20:46:40.021Z,88.93
2023-02-19T20:49:06.740Z,86.13
2023-02-19T20:51:33.501Z,88.57
2023-02-19T20:54:01.446Z,89.43
2023-02-19T20:56:29.810Z,93.63
2023-02-19T20:58:56.643Z,88.97
2023-02-19T21:01:27.475Z,85.20
2023-02-19T21:04:01.768Z,89.60
2023-02-19T21:06:28.518Z,89.55
2023-02-19T21:08:55.340Z,91.15
2023-02-19T21:11:22.134Z,94.07
2023-02-19T21:13:49.990Z,93.53
2023-02-19T21:16:18.659Z,91.47
2023-02-19T21:18:46.212Z,87.82
2023-02-19T21:21:17.366Z,94.50
2023-02-19T21:23:45.682Z,97.82
2023-02-19T21:26:13.016Z,91.10
2023-02-19T21:28:41.075Z,100.40
2023-02-19T21:31:08.109Z,95.72
2023-02-19T21:33:34.881Z,94.50
2023-02-19T21:36:02.371Z,98.50
2023-02-19T21:38:29.154Z,99.70
2023-02-19T21:40:57.262Z,99.00
2023-02-19T21:43:24.045Z,97.70
2023-02-19T21:45:50.802Z,99.40
2023-02-19T21:48:17.627Z,96.82
2023-02-19T21:50:45.688Z,99.80
2023-02-19T21:53:15.515Z,97.22
2023-02-19T21:55:57.451Z,102.10
2023-02-19T21:58:26.330Z,94.57
2023-02-19T22:00:54.308Z,99.45
2023-02-19T22:03:21.323Z,95.43
2023-02-19T22:05:48.036Z,95.13
2023-02-19T22:08:17.392Z,102.63
2023-02-19T22:10:44.520Z,96.50
2023-02-19T22:13:12.504Z,97.30
2023-02-19T22:15:39.569Z,97.38
2023-02-19T22:18:06.542Z,99.55
2023-02-19T22:20:35.236Z,98.43
2023-02-19T22:23:02.052Z,100.72
2023-02-19T22:25:28.932Z,104.25
2023-02-19T22:27:56.134Z,104.25
2023-02-19T22:30:22.957Z,99.18
2023-02-19T22:32:49.734Z,98.57
2023-02-19T22:35:16.497Z,97.57
2023-02-19T22:37:43.246Z,95.43
2023-02-19T22:40:10.928Z,96.20
2023-02-19T22:42:38.232Z,94.45
2023-02-19T22:45:05.506Z,94.82
2023-02-19T22:47:32.251Z,94.60
2023-02-19T22:49:58.989Z,89.63
2023-02-19T22:52:28.121Z,97.07
2023-02-19T22:54:55.434Z,102.18
2023-02-19T22:57:23.574Z,105.53
2023-02-19T22:59:51.664Z,103.88
2023-02-19T23:02:18.663Z,102.35
2023-02-19T23:04:45.540Z,108.32
2023-02-19T23:07:13.363Z,109.63
2023-02-19T23:09:40.205Z,105.18
2023-02-19T23:12:08.503Z,106.43
2023-02-19T23:14:35.263Z,104.18
2023-02-19T23:17:02.387Z,105.35
2023-02-19T23:19:29.125Z,114.45
2023-02-19T23:21:55.945Z,110.90
2023-02-19T23:24:22.836Z,111.88
2023-02-19T23:26:50.552Z,109.85
2023-02-19T23:29:19.982Z,111.30
2023-02-19T23:31:46.807Z,112.05
2023-02-19T23:34:14.215Z,108.13
2023-02-19T23:36:46.473Z,110.80
2023-02-19T23:39:14.621Z,106.60
2023-02-19T23:41:54.634Z,107.15
2023-02-19T23:44:22.342Z,110.53
2023-02-19T23:46:49.653Z,106.78
2023-02-19T23:49:16.424Z,107.10
2023-02-19T23:51:43.503Z,106.70
2023-02-19T23:54:10.540Z,100.63
2023-02-19T23:56:37.325Z,100.05
2023-02-19T23:59:04.264Z,100.80
